Time;durP1;ratioP1;P1;durP2;ratioP2;P2;SDS_P1;SDS_P2;PMS_P1;PMS_P2;Temp;Humidity;BMP_temperature;BMP_pressure;BME280_temperature;BME280_humidity;BME280_pressure;Samples;Min_cycle;Max_cycle;Signal;HPM_P1;HPM_P2
2021/01/22 00:01:29;;;;;;;0.47;0.47;;;;;;;;;;5025806;28;20406;-70
2021/01/22 00:03:55;;;;;;;0.10;0.10;;;;;;;;;;5023376;28;20234;-72
2021/01/22 00:06:22;;;;;;;0.40;0.40;;;;;;;;;;5042836;28;20499;-70
2021/01/22 00:08:48;;;;;;;0.53;0.30;;;;;;;;;;5023110;28;20200;-71
2021/01/22 00:11:15;;;;;;;0.10;0.10;;;;;;;;;;5025754;28;20200;-73
2021/01/22 00:13:42;;;;;;;0.10;0.10;;;;;;;;;;5024364;28;20251;-73
2021/01/22 00:16:09;;;;;;;0.10;0.10;;;;;;;;;;5005184;28;20280;-71
2021/01/22 00:18:35;;;;;;;0.10;0.10;;;;;;;;;;5009274;28;20204;-70
2021/01/22 00:21:02;;;;;;;0.20;0.20;;;;;;;;;;5021557;28;20235;-69
2021/01/22 00:23:29;;;;;;;0.20;0.20;;;;;;;;;;5008521;28;20194;-71
2021/01/22 00:25:55;;;;;;;0.10;0.10;;;;;;;;;;5023584;28;20480;-70
2021/01/22 00:28:21;;;;;;;0.20;0.20;;;;;;;;;;5013472;28;20236;-71
2021/01/22 00:30:48;;;;;;;0.10;0.10;;;;;;;;;;5020562;28;20522;-71
2021/01/22 00:33:15;;;;;;;0.10;0.10;;;;;;;;;;4994099;28;20231;-70
2021/01/22 00:35:41;;;;;;;0.10;0.10;;;;;;;;;;5022451;28;20201;-71
2021/01/22 00:38:08;;;;;;;0.23;0.23;;;;;;;;;;5023969;28;20530;-71
2021/01/22 00:40:34;;;;;;;0.20;0.20;;;;;;;;;;5022700;28;20228;-71
2021/01/22 00:43:01;;;;;;;0.10;0.10;;;;;;;;;;5023189;28;20418;-71
2021/01/22 00:45:27;;;;;;;2.73;1.40;;;;;;;;;;5023428;28;20515;-71
2021/01/22 00:47:55;;;;;;;0.10;0.10;;;;;;;;;;5006553;28;20505;-71
2021/01/22 00:50:21;;;;;;;0.30;0.30;;;;;;;;;;5020577;28;20251;-72
2021/01/22 00:52:48;;;;;;;1.77;0.83;;;;;;;;;;5023846;28;20449;-71
2021/01/22 00:55:14;;;;;;;0.73;0.73;;;;;;;;;;5026363;28;20467;-71
2021/01/22 00:57:41;;;;;;;1.00;0.90;;;;;;;;;;5027877;28;20203;-71
2021/01/22 01:00:09;;;;;;;0.20;0.20;;;;;;;;;;5022121;28;20533;-71
2021/01/22 01:02:35;;;;;;;0.43;0.43;;;;;;;;;;5020176;28;20216;-71
2021/01/22 01:05:03;;;;;;;0.10;0.10;;;;;;;;;;5026682;28;20207;-71
2021/01/22 01:07:30;;;;;;;0.47;0.47;;;;;;;;;;5027334;28;20208;-71
2021/01/22 01:09:56;;;;;;;0.23;0.23;;;;;;;;;;5026734;28;20218;-71
2021/01/22 01:12:23;;;;;;;0.30;0.30;;;;;;;;;;5016757;28;20197;-71
2021/01/22 01:14:50;;;;;;;0.60;0.60;;;;;;;;;;5021254;28;20500;-71
2021/01/22 01:17:16;;;;;;;0.10;0.10;;;;;;;;;;5006576;28;20206;-71
2021/01/22 01:19:43;;;;;;;1.50;0.57;;;;;;;;;;5023718;28;20210;-71
2021/01/22 01:22:10;;;;;;;0.63;0.63;;;;;;;;;;5006402;28;20200;-72
2021/01/22 01:24:37;;;;;;;0.20;0.20;;;;;;;;;;5009546;28;20203;-70
2021/01/22 01:27:03;;;;;;;0.10;0.10;;;;;;;;;;5017249;28;20246;-71
2021/01/22 01:29:30;;;;;;;0.30;0.30;;;;;;;;;;5020857;28;20236;-72
2021/01/22 01:31:56;;;;;;;0.23;0.23;;;;;;;;;;5004801;28;20201;-71
2021/01/22 01:34:22;;;;;;;0.13;0.13;;;;;;;;;;5021658;28;20285;-70
2021/01/22 01:36:49;;;;;;;0.17;0.17;;;;;;;;;;5002396;28;20280;-70
2021/01/22 01:39:16;;;;;;;0.10;0.10;;;;;;;;;;5010281;28;20294;-72
2021/01/22 01:41:42;;;;;;;0.20;0.20;;;;;;;;;;5031945;28;20205;-70
2021/01/22 01:44:09;;;;;;;0.10;0.10;;;;;;;;;;5006543;28;20247;-70
2021/01/22 01:46:35;;;;;;;0.20;0.20;;;;;;;;;;5014188;28;20205;-70
2021/01/22 01:49:02;;;;;;;0.10;0.10;;;;;;;;;;5020932;28;20200;-70
2021/01/22 01:51:29;;;;;;;0.20;0.13;;;;;;;;;;5041703;28;20365;-70
2021/01/22 01:53:55;;;;;;;0.50;0.50;;;;;;;;;;5014521;28;20216;-70
2021/01/22 01:56:23;;;;;;;0.23;0.23;;;;;;;;;;5007460;28;20492;-71
2021/01/22 01:58:50;;;;;;;0.30;0.30;;;;;;;;;;5024325;28;20279;-71
2021/01/22 02:01:17;;;;;;;0.10;0.10;;;;;;;;;;5020316;28;20406;-71
2021/01/22 02:03:44;;;;;;;0.20;0.20;;;;;;;;;;5019865;28;20197;-71
2021/01/22 02:06:10;;;;;;;0.10;0.10;;;;;;;;;;5017364;28;20208;-71
2021/01/22 02:08:37;;;;;;;0.10;0.10;;;;;;;;;;5023174;28;20399;-70
2021/01/22 02:11:04;;;;;;;0.20;0.20;;;;;;;;;;5019079;28;20268;-70
2021/01/22 02:13:32;;;;;;;0.10;0.10;;;;;;;;;;5026124;28;20216;-70
2021/01/22 02:15:59;;;;;;;0.10;0.10;;;;;;;;;;5023035;28;20510;-70
2021/01/22 02:18:26;;;;;;;0.10;0.10;;;;;;;;;;5014615;28;20391;-70
2021/01/22 02:20:58;;;;;;;0.60;0.17;;;;;;;;;;5022591;28;20209;-71
2021/01/22 02:23:26;;;;;;;0.10;0.10;;;;;;;;;;5020109;28;20228;-70
2021/01/22 02:25:55;;;;;;;1.40;0.30;;;;;;;;;;5007638;28;20223;-70
2021/01/22 02:28:22;;;;;;;0.10;0.10;;;;;;;;;;5025311;28;20212;-70
2021/01/22 02:30:49;;;;;;;0.10;0.10;;;;;;;;;;5026113;28;20241;-71
2021/01/22 02:33:17;;;;;;;0.10;0.10;;;;;;;;;;5010776;28;20567;-71
2021/01/22 02:35:43;;;;;;;0.10;0.10;;;;;;;;;;5003115;28;20494;-70
2021/01/22 02:38:11;;;;;;;0.20;0.20;;;;;;;;;;5015566;28;20500;-70
2021/01/22 02:40:37;;;;;;;0.10;0.10;;;;;;;;;;5033591;28;20499;-70
2021/01/22 02:43:04;;;;;;;0.10;0.10;;;;;;;;;;5012254;28;20299;-70
2021/01/22 02:45:31;;;;;;;0.23;0.20;;;;;;;;;;5022962;28;20228;-70
2021/01/22 02:47:58;;;;;;;0.17;0.17;;;;;;;;;;5022749;28;20471;-70
2021/01/22 02:50:34;;;;;;;0.30;0.30;;;;;;;;;;5021533;28;20482;-70
2021/01/22 02:53:01;;;;;;;0.10;0.10;;;;;;;;;;5025355;28;20283;-70
2021/01/22 02:55:29;;;;;;;0.10;0.10;;;;;;;;;;5014934;28;20230;-71
2021/01/22 02:57:58;;;;;;;0.10;0.10;;;;;;;;;;5010180;28;20208;-69
2021/01/22 03:00:25;;;;;;;0.10;0.10;;;;;;;;;;5025052;28;20235;-71
2021/01/22 03:02:56;;;;;;;0.10;0.10;;;;;;;;;;5023257;28;20204;-69
2021/01/22 03:05:24;;;;;;;0.10;0.10;;;;;;;;;;5024603;28;20278;-70
2021/01/22 03:07:53;;;;;;;0.10;0.10;;;;;;;;;;5020068;28;20519;-70
2021/01/22 03:10:20;;;;;;;0.10;0.10;;;;;;;;;;5025035;28;20527;-71
2021/01/22 03:12:47;;;;;;;0.10;0.10;;;;;;;;;;5043296;28;20239;-70
2021/01/22 03:15:15;;;;;;;0.10;0.10;;;;;;;;;;5022960;28;20197;-71
2021/01/22 03:17:42;;;;;;;0.10;0.10;;;;;;;;;;5021477;28;20235;-71
2021/01/22 03:20:10;;;;;;;0.10;0.10;;;;;;;;;;5023798;28;20232;-72
2021/01/22 03:22:37;;;;;;;0.20;0.20;;;;;;;;;;5018908;28;20260;-70
2021/01/22 03:25:04;;;;;;;1.50;0.43;;;;;;;;;;5006337;28;20449;-70
2021/01/22 03:27:30;;;;;;;0.10;0.10;;;;;;;;;;5015581;28;20206;-70
2021/01/22 03:29:57;;;;;;;0.10;0.10;;;;;;;;;;5024127;28;20273;-71
2021/01/22 03:32:23;;;;;;;0.10;0.10;;;;;;;;;;5006244;28;20205;-70
2021/01/22 03:34:50;;;;;;;0.10;0.10;;;;;;;;;;5023997;28;20438;-70
2021/01/22 03:37:17;;;;;;;0.10;0.10;;;;;;;;;;5007366;28;20272;-71
2021/01/22 03:39:44;;;;;;;0.10;0.10;;;;;;;;;;5023391;28;20234;-70
2021/01/22 03:42:10;;;;;;;0.10;0.10;;;;;;;;;;5021345;28;20392;-70
2021/01/22 03:44:37;;;;;;;0.10;0.10;;;;;;;;;;5005257;28;20258;-71
2021/01/22 03:47:03;;;;;;;0.20;0.20;;;;;;;;;;5034504;28;20225;-70
2021/01/22 03:49:29;;;;;;;0.20;0.20;;;;;;;;;;5004859;28;20233;-70
2021/01/22 03:51:56;;;;;;;0.10;0.10;;;;;;;;;;5016788;28;20268;-70
2021/01/22 03:54:23;;;;;;;0.10;0.10;;;;;;;;;;5007068;28;20244;-71
2021/01/22 03:56:49;;;;;;;0.17;0.17;;;;;;;;;;5004206;28;20243;-70
2021/01/22 03:59:16;;;;;;;0.20;0.20;;;;;;;;;;5017804;28;20206;-71
2021/01/22 04:01:42;;;;;;;0.20;0.20;;;;;;;;;;5016692;28;20458;-71
2021/01/22 04:04:09;;;;;;;0.10;0.10;;;;;;;;;;5004776;28;20269;-71
2021/01/22 04:06:36;;;;;;;0.20;0.20;;;;;;;;;;5002083;28;20202;-70
2021/01/22 04:09:02;;;;;;;1.70;0.30;;;;;;;;;;5022993;28;20271;-71
2021/01/22 04:11:30;;;;;;;0.10;0.10;;;;;;;;;;5002840;28;20264;-70
2021/01/22 04:13:56;;;;;;;0.10;0.10;;;;;;;;;;5004513;28;20254;-70
2021/01/22 04:16:22;;;;;;;0.10;0.10;;;;;;;;;;5021881;28;20224;-71
2021/01/22 04:18:49;;;;;;;0.10;0.10;;;;;;;;;;5012539;28;20235;-71
2021/01/22 04:21:16;;;;;;;0.13;0.13;;;;;;;;;;5004227;28;20225;-71
2021/01/22 04:23:42;;;;;;;0.20;0.20;;;;;;;;;;4998085;28;20199;-70
2021/01/22 04:26:08;;;;;;;0.10;0.10;;;;;;;;;;5017645;28;20201;-70
2021/01/22 04:28:36;;;;;;;0.10;0.10;;;;;;;;;;5023150;28;20203;-69
2021/01/22 04:31:02;;;;;;;0.10;0.10;;;;;;;;;;5025998;28;20276;-72
2021/01/22 04:33:29;;;;;;;0.10;0.10;;;;;;;;;;5014050;28;20458;-71
2021/01/22 04:35:55;;;;;;;0.10;0.10;;;;;;;;;;5008135;28;20243;-71
2021/01/22 04:38:22;;;;;;;0.10;0.10;;;;;;;;;;5011030;28;20198;-70
2021/01/22 04:40:49;;;;;;;0.10;0.10;;;;;;;;;;5012174;28;20229;-70
2021/01/22 04:43:16;;;;;;;0.10;0.10;;;;;;;;;;5024939;28;20267;-70
2021/01/22 04:45:43;;;;;;;0.10;0.10;;;;;;;;;;5027721;28;20201;-70
2021/01/22 04:48:09;;;;;;;0.10;0.10;;;;;;;;;;5045991;28;20212;-71
2021/01/22 04:50:38;;;;;;;0.10;0.10;;;;;;;;;;5026690;28;20229;-69
2021/01/22 04:53:07;;;;;;;0.10;0.10;;;;;;;;;;5028414;28;20253;-71
2021/01/22 04:55:34;;;;;;;0.10;0.10;;;;;;;;;;5027559;28;20232;-71
2021/01/22 04:58:03;;;;;;;0.20;0.20;;;;;;;;;;5008151;28;20247;-71
2021/01/22 05:00:30;;;;;;;0.20;0.20;;;;;;;;;;5027269;28;20272;-70
2021/01/22 05:02:58;;;;;;;1.10;0.47;;;;;;;;;;5024516;28;20201;-71
2021/01/22 05:05:25;;;;;;;0.10;0.10;;;;;;;;;;5026033;28;20482;-70
2021/01/22 05:07:51;;;;;;;0.10;0.10;;;;;;;;;;5020085;28;20275;-71
2021/01/22 05:10:18;;;;;;;0.20;0.20;;;;;;;;;;5010148;28;20235;-71
2021/01/22 05:12:44;;;;;;;0.10;0.10;;;;;;;;;;5018699;28;20205;-70
2021/01/22 05:15:14;;;;;;;0.10;0.10;;;;;;;;;;5017347;28;20270;-70
2021/01/22 05:17:53;;;;;;;0.10;0.10;;;;;;;;;;5017020;28;20201;-70
2021/01/22 05:20:26;;;;;;;0.10;0.10;;;;;;;;;;5044023;28;20207;-70
2021/01/22 05:22:53;;;;;;;0.20;0.20;;;;;;;;;;5028048;28;20220;-71
2021/01/22 05:25:19;;;;;;;0.10;0.10;;;;;;;;;;5023129;28;20236;-71
2021/01/22 05:27:49;;;;;;;1.93;1.83;;;;;;;;;;5038005;28;20583;-71
2021/01/22 05:30:16;;;;;;;0.10;0.10;;;;;;;;;;5007638;28;20197;-71
2021/01/22 05:32:42;;;;;;;0.30;0.30;;;;;;;;;;5021153;28;20281;-71
2021/01/22 05:35:09;;;;;;;0.10;0.10;;;;;;;;;;5018751;28;20225;-71
2021/01/22 05:37:48;;;;;;;0.10;0.10;;;;;;;;;;5027648;28;20234;-71
2021/01/22 05:40:15;;;;;;;0.20;0.20;;;;;;;;;;5026686;28;20515;-70
2021/01/22 05:42:48;;;;;;;0.10;0.10;;;;;;;;;;5025786;28;20296;-70
2021/01/22 05:45:15;;;;;;;0.10;0.10;;;;;;;;;;5030677;28;20207;-70
2021/01/22 05:47:42;;;;;;;0.10;0.10;;;;;;;;;;5015090;28;20219;-71
2021/01/22 05:50:08;;;;;;;0.10;0.10;;;;;;;;;;5004704;28;20225;-70
2021/01/22 05:52:34;;;;;;;0.10;0.10;;;;;;;;;;5026240;28;20488;-70
2021/01/22 05:55:17;;;;;;;0.10;0.10;;;;;;;;;;5041506;28;20237;-71
2021/01/22 05:57:43;;;;;;;0.10;0.10;;;;;;;;;;5022044;28;20211;-71
2021/01/22 06:00:11;;;;;;;0.20;0.20;;;;;;;;;;5041572;28;20539;-70
2021/01/22 06:02:37;;;;;;;0.10;0.10;;;;;;;;;;5026467;28;20511;-70
2021/01/22 06:05:08;;;;;;;0.20;0.20;;;;;;;;;;5029448;28;20239;-70
2021/01/22 06:07:34;;;;;;;0.30;0.30;;;;;;;;;;5013463;28;20297;-70
2021/01/22 06:10:11;;;;;;;0.10;0.10;;;;;;;;;;5018376;28;20239;-71
2021/01/22 06:12:39;;;;;;;0.30;0.30;;;;;;;;;;5021574;28;20247;-69
2021/01/22 06:15:07;;;;;;;0.10;0.10;;;;;;;;;;5016670;28;20261;-69
2021/01/22 06:17:34;;;;;;;0.10;0.10;;;;;;;;;;5002004;28;20278;-72
2021/01/22 06:20:00;;;;;;;0.30;0.30;;;;;;;;;;5023579;28;20228;-72
2021/01/22 06:22:31;;;;;;;0.20;0.20;;;;;;;;;;5026520;28;20244;-72
2021/01/22 06:24:58;;;;;;;0.10;0.10;;;;;;;;;;5014391;28;20228;-71
2021/01/22 06:27:25;;;;;;;0.10;0.10;;;;;;;;;;5008454;28;20277;-72
2021/01/22 06:29:52;;;;;;;0.30;0.30;;;;;;;;;;5024666;28;20224;-71
2021/01/22 06:32:19;;;;;;;0.10;0.10;;;;;;;;;;5024137;28;20276;-71
2021/01/22 06:34:47;;;;;;;0.10;0.10;;;;;;;;;;5010727;28;20226;-71
2021/01/22 06:37:14;;;;;;;0.10;0.10;;;;;;;;;;5012757;28;20277;-71
2021/01/22 06:39:42;;;;;;;0.20;0.20;;;;;;;;;;5020586;28;20445;-71
2021/01/22 06:42:09;;;;;;;0.40;0.40;;;;;;;;;;5043709;28;20275;-71
2021/01/22 06:44:35;;;;;;;0.40;0.40;;;;;;;;;;5008836;28;20301;-70
2021/01/22 06:47:10;;;;;;;0.10;0.10;;;;;;;;;;5004992;28;20276;-71
2021/01/22 06:49:37;;;;;;;0.10;0.10;;;;;;;;;;5018040;28;20236;-70
2021/01/22 06:52:10;;;;;;;0.10;0.10;;;;;;;;;;5007472;28;20198;-71
2021/01/22 06:54:51;;;;;;;0.20;0.20;;;;;;;;;;5002472;28;20528;-70
2021/01/22 06:57:18;;;;;;;0.20;0.20;;;;;;;;;;5010706;28;20277;-71
2021/01/22 06:59:44;;;;;;;0.20;0.20;;;;;;;;;;5013297;28;20235;-71
2021/01/22 07:02:38;;;;;;;0.10;0.10;;;;;;;;;;5020306;28;20378;-70
2021/01/22 07:05:23;;;;;;;0.20;0.20;;;;;;;;;;5008679;28;20453;-70
2021/01/22 07:07:50;;;;;;;0.20;0.20;;;;;;;;;;5023140;28;20256;-70
2021/01/22 07:10:17;;;;;;;0.37;0.20;;;;;;;;;;5018248;28;20370;-71
2021/01/22 07:12:45;;;;;;;0.10;0.10;;;;;;;;;;5007305;28;20271;-72
2021/01/22 07:15:32;;;;;;;0.10;0.10;;;;;;;;;;5024141;28;20301;-72
2021/01/22 07:17:59;;;;;;;0.10;0.10;;;;;;;;;;5020117;28;20232;-71
2021/01/22 07:20:28;;;;;;;0.20;0.20;;;;;;;;;;5025276;28;20401;-70
2021/01/22 07:22:55;;;;;;;0.10;0.10;;;;;;;;;;5037851;28;20399;-70
2021/01/22 07:25:33;;;;;;;0.10;0.10;;;;;;;;;;5005820;28;20206;-71
2021/01/22 07:28:03;;;;;;;0.20;0.20;;;;;;;;;;5006088;28;20209;-71
2021/01/22 07:30:36;;;;;;;0.23;0.23;;;;;;;;;;5017787;28;20193;-73
2021/01/22 07:33:23;;;;;;;0.10;0.10;;;;;;;;;;5030991;28;20269;-72
2021/01/22 07:35:49;;;;;;;0.10;0.10;;;;;;;;;;5033528;28;20250;-71
2021/01/22 07:38:23;;;;;;;0.10;0.10;;;;;;;;;;5025489;28;20232;-72
2021/01/22 07:40:50;;;;;;;0.10;0.10;;;;;;;;;;5016827;28;20252;-72
2021/01/22 07:43:17;;;;;;;0.10;0.10;;;;;;;;;;5002938;28;20228;-71
2021/01/22 07:45:43;;;;;;;0.20;0.20;;;;;;;;;;5022264;28;20553;-72
2021/01/22 07:48:10;;;;;;;0.10;0.10;;;;;;;;;;5025407;28;20208;-70
2021/01/22 07:50:36;;;;;;;0.17;0.17;;;;;;;;;;5023771;28;20232;-72
2021/01/22 07:53:03;;;;;;;0.10;0.10;;;;;;;;;;5003023;28;20202;-72
2021/01/22 07:55:30;;;;;;;0.20;0.20;;;;;;;;;;5008345;28;20232;-71
2021/01/22 07:58:03;;;;;;;0.10;0.10;;;;;;;;;;5003635;28;20277;-65
2021/01/22 08:00:36;;;;;;;0.30;0.30;;;;;;;;;;5002858;28;20429;-65
2021/01/22 08:03:02;;;;;;;0.63;0.40;;;;;;;;;;5024862;28;20246;-64
2021/01/22 08:05:29;;;;;;;0.20;0.20;;;;;;;;;;5041882;28;20196;-65
2021/01/22 08:07:56;;;;;;;0.13;0.13;;;;;;;;;;5009501;28;20228;-66
2021/01/22 08:10:26;;;;;;;0.23;0.23;;;;;;;;;;5028325;28;20202;-66
2021/01/22 08:12:57;;;;;;;0.10;0.10;;;;;;;;;;5037109;28;20295;-65
2021/01/22 08:15:24;;;;;;;0.17;0.17;;;;;;;;;;5020260;28;20279;-65
2021/01/22 08:17:51;;;;;;;0.10;0.10;;;;;;;;;;5026899;28;20197;-65
2021/01/22 08:20:18;;;;;;;0.20;0.20;;;;;;;;;;5007130;28;20198;-65
2021/01/22 08:22:50;;;;;;;1.60;0.63;;;;;;;;;;5027203;28;20197;-65
2021/01/22 08:25:16;;;;;;;0.10;0.10;;;;;;;;;;5046700;28;20255;-65
2021/01/22 08:27:43;;;;;;;0.10;0.10;;;;;;;;;;5010297;28;20198;-66
2021/01/22 08:30:11;;;;;;;4.57;3.70;;;;;;;;;;5006194;28;20197;-66
2021/01/22 08:32:38;;;;;;;0.20;0.20;;;;;;;;;;5020383;28;20212;-64
2021/01/22 08:35:05;;;;;;;0.40;0.40;;;;;;;;;;5010687;28;20225;-67
2021/01/22 08:37:32;;;;;;;0.10;0.10;;;;;;;;;;5009716;28;20202;-66
2021/01/22 08:39:59;;;;;;;0.10;0.10;;;;;;;;;;5023014;28;20346;-66
2021/01/22 08:42:26;;;;;;;0.10;0.10;;;;;;;;;;5028534;28;20505;-65
2021/01/22 08:44:54;;;;;;;0.30;0.20;;;;;;;;;;5027430;28;20205;-66
2021/01/22 08:47:21;;;;;;;0.10;0.10;;;;;;;;;;5024139;28;20203;-65
2021/01/22 08:49:58;;;;;;;0.17;0.17;;;;;;;;;;5026475;28;20225;-66
2021/01/22 08:52:25;;;;;;;0.10;0.10;;;;;;;;;;5003602;28;20209;-66
2021/01/22 08:54:54;;;;;;;0.10;0.10;;;;;;;;;;5010748;28;20253;-66
2021/01/22 08:57:21;;;;;;;0.10;0.10;;;;;;;;;;5026503;28;20197;-66
2021/01/22 08:59:52;;;;;;;0.83;0.83;;;;;;;;;;5006808;28;20211;-67
2021/01/22 09:02:38;;;;;;;0.10;0.10;;;;;;;;;;5007156;28;20509;-65
2021/01/22 09:05:09;;;;;;;0.13;0.13;;;;;;;;;;5027521;28;20205;-64
2021/01/22 09:07:36;;;;;;;0.10;0.10;;;;;;;;;;5026995;28;20202;-67
2021/01/22 09:10:03;;;;;;;0.10;0.10;;;;;;;;;;5041304;28;20203;-66
2021/01/22 09:12:30;;;;;;;0.10;0.10;;;;;;;;;;5007635;28;20195;-65
2021/01/22 09:14:59;;;;;;;0.10;0.10;;;;;;;;;;5025144;28;20228;-67
2021/01/22 09:17:34;;;;;;;0.10;0.10;;;;;;;;;;5006274;28;20283;-75
2021/01/22 09:20:02;;;;;;;0.10;0.10;;;;;;;;;;5017634;28;20443;-72
2021/01/22 09:22:31;;;;;;;0.10;0.10;;;;;;;;;;5028002;28;20397;-74
2021/01/22 09:24:58;;;;;;;0.10;0.10;;;;;;;;;;5017134;28;20451;-73
2021/01/22 09:27:25;;;;;;;0.10;0.10;;;;;;;;;;5021840;28;20235;-72
2021/01/22 09:29:51;;;;;;;0.10;0.10;;;;;;;;;;5004275;28;20232;-74
2021/01/22 09:32:18;;;;;;;0.10;0.10;;;;;;;;;;5023841;28;20469;-75
2021/01/22 09:34:45;;;;;;;0.10;0.10;;;;;;;;;;5019702;28;20224;-75
2021/01/22 09:37:12;;;;;;;0.10;0.10;;;;;;;;;;5014527;28;20546;-75
2021/01/22 09:39:40;;;;;;;0.10;0.10;;;;;;;;;;5007295;28;20400;-74
2021/01/22 09:42:06;;;;;;;0.10;0.10;;;;;;;;;;5009693;28;20203;-74
2021/01/22 09:44:33;;;;;;;0.10;0.10;;;;;;;;;;5008348;28;20525;-74
2021/01/22 09:47:00;;;;;;;0.10;0.10;;;;;;;;;;5021738;28;20512;-73
2021/01/22 09:49:27;;;;;;;0.10;0.10;;;;;;;;;;5005449;28;20375;-75
2021/01/22 09:51:53;;;;;;;0.10;0.10;;;;;;;;;;5025683;28;20205;-74
2021/01/22 09:54:21;;;;;;;0.20;0.20;;;;;;;;;;5007710;28;20283;-73
2021/01/22 09:56:47;;;;;;;0.10;0.10;;;;;;;;;;5027223;28;20258;-73
2021/01/22 09:59:14;;;;;;;0.10;0.10;;;;;;;;;;5024164;28;20277;-74
2021/01/22 10:01:40;;;;;;;0.10;0.10;;;;;;;;;;5008679;28;20204;-71
2021/01/22 10:04:07;;;;;;;0.10;0.10;;;;;;;;;;5009675;28;20201;-74
2021/01/22 10:06:34;;;;;;;0.10;0.10;;;;;;;;;;5005854;28;20241;-72
2021/01/22 10:09:01;;;;;;;0.10;0.10;;;;;;;;;;5024443;28;20246;-73
2021/01/22 10:11:29;;;;;;;0.10;0.10;;;;;;;;;;5008236;28;20196;-74
2021/01/22 10:13:56;;;;;;;0.10;0.10;;;;;;;;;;5026490;28;20484;-72
2021/01/22 10:16:23;;;;;;;0.10;0.10;;;;;;;;;;5009812;28;20416;-74
2021/01/22 10:18:50;;;;;;;0.10;0.10;;;;;;;;;;5025830;28;20554;-73
2021/01/22 10:21:18;;;;;;;0.10;0.10;;;;;;;;;;5007543;28;20399;-73
2021/01/22 10:23:45;;;;;;;0.10;0.10;;;;;;;;;;5041826;28;20198;-72
2021/01/22 10:26:12;;;;;;;0.10;0.10;;;;;;;;;;5041632;28;20208;-71
2021/01/22 10:28:39;;;;;;;0.10;0.10;;;;;;;;;;5028823;28;20201;-73
2021/01/22 10:31:06;;;;;;;0.10;0.10;;;;;;;;;;5007872;28;20418;-72
2021/01/22 10:33:33;;;;;;;0.17;0.17;;;;;;;;;;5007773;28;20290;-74
2021/01/22 10:36:00;;;;;;;0.10;0.10;;;;;;;;;;5005531;28;20233;-74
2021/01/22 10:38:27;;;;;;;0.33;0.33;;;;;;;;;;5042806;28;20224;-72
2021/01/22 10:40:54;;;;;;;0.10;0.10;;;;;;;;;;5030593;28;20235;-73
2021/01/22 10:43:21;;;;;;;0.10;0.10;;;;;;;;;;5025048;28;20482;-72
2021/01/22 10:45:49;;;;;;;0.10;0.10;;;;;;;;;;5009274;28;20215;-74
2021/01/22 10:48:16;;;;;;;0.10;0.10;;;;;;;;;;5042634;28;20279;-73
2021/01/22 10:50:43;;;;;;;0.10;0.10;;;;;;;;;;5000894;28;20235;-72
2021/01/22 10:53:09;;;;;;;0.10;0.10;;;;;;;;;;5007814;28;20291;-72
2021/01/22 10:55:36;;;;;;;0.10;0.10;;;;;;;;;;5020226;28;20311;-71
2021/01/22 10:58:03;;;;;;;0.10;0.10;;;;;;;;;;5024118;28;20503;-72
2021/01/22 11:00:29;;;;;;;0.10;0.10;;;;;;;;;;5022004;28;20196;-72
2021/01/22 11:02:57;;;;;;;0.10;0.10;;;;;;;;;;5024801;28;20212;-74
2021/01/22 11:05:24;;;;;;;0.17;0.17;;;;;;;;;;5023886;28;20228;-76
2021/01/22 11:07:50;;;;;;;0.10;0.10;;;;;;;;;;5007361;28;20205;-73
2021/01/22 11:10:17;;;;;;;0.10;0.10;;;;;;;;;;5024363;28;20200;-73
2021/01/22 11:12:43;;;;;;;0.10;0.10;;;;;;;;;;5023153;28;20208;-74
2021/01/22 11:15:10;;;;;;;0.10;0.10;;;;;;;;;;5021686;28;20224;-74
2021/01/22 11:17:37;;;;;;;0.10;0.10;;;;;;;;;;5007511;28;20505;-74
2021/01/22 11:20:05;;;;;;;0.10;0.10;;;;;;;;;;5008006;28;20203;-75
2021/01/22 11:22:32;;;;;;;0.10;0.10;;;;;;;;;;5008265;28;20280;-75
2021/01/22 11:24:59;;;;;;;0.10;0.10;;;;;;;;;;5017664;28;20197;-75
2021/01/22 11:27:26;;;;;;;0.10;0.10;;;;;;;;;;5000703;28;20232;-75
2021/01/22 11:29:53;;;;;;;0.10;0.10;;;;;;;;;;5022084;28;20197;-75
2021/01/22 11:32:20;;;;;;;0.10;0.10;;;;;;;;;;5023323;28;20200;-75
2021/01/22 11:34:46;;;;;;;0.10;0.10;;;;;;;;;;5023385;28;20220;-75
2021/01/22 11:37:14;;;;;;;0.10;0.10;;;;;;;;;;5008607;28;20198;-76
2021/01/22 11:39:41;;;;;;;0.10;0.10;;;;;;;;;;5024863;28;20295;-74
2021/01/22 11:42:08;;;;;;;0.10;0.10;;;;;;;;;;5007356;28;20371;-73
2021/01/22 11:44:34;;;;;;;0.10;0.10;;;;;;;;;;5006327;28;20231;-75
2021/01/22 11:47:01;;;;;;;0.10;0.10;;;;;;;;;;5039755;28;20259;-73
2021/01/22 11:49:28;;;;;;;0.10;0.10;;;;;;;;;;5020651;28;20197;-73
2021/01/22 11:51:55;;;;;;;0.10;0.10;;;;;;;;;;5004731;28;20224;-74
2021/01/22 11:54:22;;;;;;;0.10;0.10;;;;;;;;;;5030342;28;20445;-74
2021/01/22 11:56:50;;;;;;;0.10;0.10;;;;;;;;;;5044912;28;20206;-74
2021/01/22 11:59:17;;;;;;;0.10;0.10;;;;;;;;;;5007626;28;20275;-73
2021/01/22 12:01:43;;;;;;;0.10;0.10;;;;;;;;;;5002750;28;20276;-72
2021/01/22 12:04:10;;;;;;;0.20;0.20;;;;;;;;;;5007045;28;20197;-74
2021/01/22 12:06:36;;;;;;;0.10;0.10;;;;;;;;;;5043095;28;20205;-75
2021/01/22 12:09:03;;;;;;;0.10;0.10;;;;;;;;;;5022986;28;20549;-74
2021/01/22 12:11:30;;;;;;;0.10;0.10;;;;;;;;;;5006088;28;20207;-74
2021/01/22 12:13:57;;;;;;;0.10;0.10;;;;;;;;;;5003764;28;20229;-74
2021/01/22 12:16:24;;;;;;;0.10;0.10;;;;;;;;;;5024191;28;20556;-74
2021/01/22 12:18:50;;;;;;;0.10;0.10;;;;;;;;;;5024928;28;20291;-74
2021/01/22 12:21:17;;;;;;;0.10;0.10;;;;;;;;;;5004736;28;20201;-75
2021/01/22 12:23:44;;;;;;;0.10;0.10;;;;;;;;;;5007542;28;20366;-73
2021/01/22 12:26:10;;;;;;;0.10;0.10;;;;;;;;;;5016923;28;20212;-73
2021/01/22 12:28:38;;;;;;;0.10;0.10;;;;;;;;;;5024740;28;20233;-74
2021/01/22 12:31:05;;;;;;;0.10;0.10;;;;;;;;;;5021219;28;20205;-71
2021/01/22 12:33:32;;;;;;;2.00;1.90;;;;;;;;;;5024635;28;20197;-75
2021/01/22 12:35:59;;;;;;;0.10;0.10;;;;;;;;;;5024991;28;20310;-75
2021/01/22 12:38:25;;;;;;;0.10;0.10;;;;;;;;;;5025337;28;20522;-74
2021/01/22 12:40:52;;;;;;;0.20;0.20;;;;;;;;;;5013862;28;20271;-73
2021/01/22 12:43:19;;;;;;;0.10;0.10;;;;;;;;;;5023469;28;20519;-73
2021/01/22 12:45:47;;;;;;;0.10;0.10;;;;;;;;;;5023018;28;20200;-72
2021/01/22 12:48:13;;;;;;;0.10;0.10;;;;;;;;;;5018993;28;20289;-73
2021/01/22 12:50:41;;;;;;;0.10;0.10;;;;;;;;;;5004768;28;20504;-73
2021/01/22 12:53:08;;;;;;;0.10;0.10;;;;;;;;;;5025002;28;20422;-70
2021/01/22 12:55:34;;;;;;;0.10;0.10;;;;;;;;;;5011449;28;20535;-73
2021/01/22 12:58:01;;;;;;;0.10;0.10;;;;;;;;;;5017313;28;20227;-71
2021/01/22 13:00:28;;;;;;;0.10;0.10;;;;;;;;;;5010122;28;20268;-71
2021/01/22 13:02:55;;;;;;;0.17;0.17;;;;;;;;;;5009977;28;20484;-70
2021/01/22 13:05:24;;;;;;;0.10;0.10;;;;;;;;;;5006899;28;20208;-74
2021/01/22 13:07:50;;;;;;;0.10;0.10;;;;;;;;;;5042057;28;20227;-72
2021/01/22 13:10:17;;;;;;;0.10;0.10;;;;;;;;;;5027003;28;20196;-71
2021/01/22 13:12:44;;;;;;;0.10;0.10;;;;;;;;;;5021335;28;20204;-72
2021/01/22 13:15:11;;;;;;;0.10;0.10;;;;;;;;;;5027489;28;20274;-71
2021/01/22 13:17:38;;;;;;;0.10;0.10;;;;;;;;;;5026318;28;20479;-72
2021/01/22 13:20:07;;;;;;;0.10;0.10;;;;;;;;;;5024531;28;20499;-71
2021/01/22 13:22:33;;;;;;;0.10;0.10;;;;;;;;;;5026947;28;20210;-73
2021/01/22 13:25:00;;;;;;;0.50;0.50;;;;;;;;;;5026007;28;20199;-73
2021/01/22 13:27:27;;;;;;;0.10;0.10;;;;;;;;;;5006857;28;20276;-72
2021/01/22 13:29:54;;;;;;;0.10;0.10;;;;;;;;;;5023962;28;20196;-72
2021/01/22 13:32:21;;;;;;;0.10;0.10;;;;;;;;;;5005681;28;20277;-72
2021/01/22 13:34:47;;;;;;;0.10;0.10;;;;;;;;;;5027206;28;20248;-72
2021/01/22 13:37:15;;;;;;;0.10;0.10;;;;;;;;;;5026536;28;20200;-71
2021/01/22 13:39:42;;;;;;;0.10;0.10;;;;;;;;;;5025264;28;20319;-70
2021/01/22 13:42:09;;;;;;;0.10;0.10;;;;;;;;;;5021401;28;20208;-71
2021/01/22 13:44:35;;;;;;;0.10;0.10;;;;;;;;;;5021269;28;20243;-71
2021/01/22 13:47:02;;;;;;;0.10;0.10;;;;;;;;;;5021250;28;20423;-72
2021/01/22 13:49:29;;;;;;;0.10;0.10;;;;;;;;;;5001032;28;20196;-71
2021/01/22 13:51:56;;;;;;;0.10;0.10;;;;;;;;;;5020551;28;20205;-72
2021/01/22 13:54:23;;;;;;;0.10;0.10;;;;;;;;;;5006603;28;20319;-71
2021/01/22 13:56:50;;;;;;;0.13;0.13;;;;;;;;;;5009185;28;20251;-72
2021/01/22 13:59:17;;;;;;;0.10;0.10;;;;;;;;;;5028577;28;20206;-73
2021/01/22 14:01:44;;;;;;;0.10;0.10;;;;;;;;;;5029392;28;20484;-74
2021/01/22 14:04:10;;;;;;;0.10;0.10;;;;;;;;;;5028157;28;20208;-74
2021/01/22 14:06:37;;;;;;;0.10;0.10;;;;;;;;;;5008142;28;20200;-74
2021/01/22 14:09:04;;;;;;;0.10;0.10;;;;;;;;;;5002265;28;20227;-75
2021/01/22 14:11:32;;;;;;;0.10;0.10;;;;;;;;;;5040531;28;20197;-76
2021/01/22 14:13:58;;;;;;;0.13;0.13;;;;;;;;;;5019692;28;20441;-74
2021/01/22 14:16:25;;;;;;;0.10;0.10;;;;;;;;;;5004331;28;20208;-76
2021/01/22 14:18:52;;;;;;;0.10;0.10;;;;;;;;;;5018961;28;20545;-75
2021/01/22 14:21:19;;;;;;;0.10;0.10;;;;;;;;;;5009134;28;20442;-75
2021/01/22 14:23:46;;;;;;;0.20;0.20;;;;;;;;;;5008723;28;20209;-75
2021/01/22 14:26:13;;;;;;;0.20;0.20;;;;;;;;;;5008953;28;20398;-76
2021/01/22 14:28:41;;;;;;;0.20;0.20;;;;;;;;;;5008744;28;20532;-75
2021/01/22 14:31:08;;;;;;;0.10;0.10;;;;;;;;;;5025104;28;20484;-74
2021/01/22 14:33:35;;;;;;;0.10;0.10;;;;;;;;;;4998192;28;20225;-73
2021/01/22 14:36:02;;;;;;;0.10;0.10;;;;;;;;;;5019242;28;20208;-72
2021/01/22 14:38:28;;;;;;;0.10;0.10;;;;;;;;;;5006155;28;20201;-73
2021/01/22 14:40:55;;;;;;;0.10;0.10;;;;;;;;;;5032096;28;20200;-72
2021/01/22 14:43:22;;;;;;;0.10;0.10;;;;;;;;;;5034804;28;20312;-72
2021/01/22 14:45:49;;;;;;;0.13;0.13;;;;;;;;;;5007929;28;20247;-73